ETD67B OMAA-EDDM
Flight info
| Callsign | ETD67B |
|---|---|
| Flight time | N/A |
| Altitude | 36000 |
| Route | ATUDO M318 GOLGU M550 RIBOT/N0519F280 M550 MEVDO Y511 ITRUX/N0503F360 Y511 PMA Z712 WEJ L677 EMOVA/N0493F380 L677 CVO L617 NOZ L551 ANTAR DCT RIGRO DCT DISOR DCT LONTA UL608 DOLEV DCT IRDIV DCT PODET DCT EXHEK DCT REDBU Q112 NAPSA NAPSA4A |
| Aircraft | B78X/H-SDE1E2E3FGHIJ2J3J4J5M1RWXY/LB1D1 |
Departure
| Time | N/A |
|---|---|
| Airport | Zayed International Airport (OMAA) |
Arrival
| Time | 2026-05-06 19:25 |
|---|---|
| Airport | Munich Airport (EDDM) |
| Time | Latitude | Longitude | Altitude | Speed | Heading |
|---|---|---|---|---|---|
| 2026-05-06 18:36 | 45.07005 | 17.10210 | 39940 ft | 463 kts | 314° |
| 2026-05-06 18:36 | 45.11759 | 17.04020 | 39929 ft | 465 kts | 313° |
| 2026-05-06 18:37 | 45.15743 | 16.98807 | 39932 ft | 465 kts | 313° |
| 2026-05-06 18:37 | 45.21271 | 16.91572 | 39933 ft | 465 kts | 313° |
| 2026-05-06 18:38 | 45.26022 | 16.85329 | 39932 ft | 465 kts | 313° |
| 2026-05-06 18:38 | 45.30770 | 16.79080 | 39929 ft | 465 kts | 313° |
| 2026-05-06 18:39 | 45.35519 | 16.72811 | 39930 ft | 466 kts | 313° |
| 2026-05-06 18:40 | 45.42618 | 16.63416 | 39932 ft | 467 kts | 313° |
| 2026-05-06 18:40 | 45.47366 | 16.57113 | 39931 ft | 467 kts | 313° |
| 2026-05-06 18:41 | 45.52121 | 16.50785 | 39925 ft | 467 kts | 313° |
| 2026-05-06 18:41 | 45.56869 | 16.44451 | 39927 ft | 468 kts | 313° |
| 2026-05-06 18:42 | 45.61620 | 16.38097 | 39927 ft | 468 kts | 313° |
| 2026-05-06 18:42 | 45.66360 | 16.31743 | 39929 ft | 467 kts | 313° |
| 2026-05-06 18:43 | 45.71102 | 16.25371 | 39910 ft | 468 kts | 313° |
| 2026-05-06 18:43 | 45.75844 | 16.18982 | 39905 ft | 468 kts | 313° |
| 2026-05-06 18:44 | 45.80586 | 16.12580 | 39905 ft | 468 kts | 312° |
| 2026-05-06 18:44 | 45.85290 | 16.06210 | 39915 ft | 469 kts | 313° |
| 2026-05-06 18:45 | 45.89998 | 15.99822 | 39913 ft | 469 kts | 313° |
| 2026-05-06 18:45 | 45.94740 | 15.93372 | 39919 ft | 469 kts | 312° |
| 2026-05-06 18:46 | 45.99480 | 15.86905 | 39920 ft | 470 kts | 312° |
| 2026-05-06 18:46 | 46.04219 | 15.80428 | 39917 ft | 470 kts | 312° |
| 2026-05-06 18:47 | 46.08953 | 15.73939 | 39930 ft | 470 kts | 312° |
| 2026-05-06 18:47 | 46.13688 | 15.67433 | 39918 ft | 471 kts | 312° |
| 2026-05-06 18:48 | 46.18594 | 15.61156 | 39939 ft | 475 kts | 322° |
| 2026-05-06 18:48 | 46.24357 | 15.56339 | 39905 ft | 480 kts | 327° |
| 2026-05-06 18:49 | 46.30067 | 15.51421 | 39908 ft | 477 kts | 322° |
| 2026-05-06 18:49 | 46.34749 | 15.47202 | 39896 ft | 479 kts | 325° |
| 2026-05-06 18:50 | 46.40480 | 15.42263 | 39914 ft | 479 kts | 323° |
| 2026-05-06 18:50 | 46.46152 | 15.37200 | 39891 ft | 479 kts | 324° |
| 2026-05-06 18:51 | 46.51835 | 15.32211 | 39888 ft | 479 kts | 324° |
| 2026-05-06 18:51 | 46.57545 | 15.27131 | 39893 ft | 479 kts | 324° |
| 2026-05-06 18:52 | 46.63221 | 15.22098 | 39883 ft | 477 kts | 324° |
| 2026-05-06 18:52 | 46.68865 | 15.17048 | 39879 ft | 474 kts | 321° |
| 2026-05-06 18:52 | 46.71374 | 15.14012 | 39899 ft | 466 kts | 308° |
| 2026-05-06 18:53 | 46.73456 | 15.10410 | 39881 ft | 464 kts | 302° |
| 2026-05-06 18:53 | 46.77151 | 15.02727 | 39879 ft | 463 kts | 302° |
| 2026-05-06 18:54 | 46.81280 | 14.95449 | 39878 ft | 466 kts | 306° |
| 2026-05-06 18:54 | 46.85354 | 14.88111 | 39865 ft | 464 kts | 303° |
| 2026-05-06 18:55 | 46.89417 | 14.80744 | 39869 ft | 468 kts | 305° |
| 2026-05-06 18:55 | 46.93537 | 14.73327 | 39858 ft | 470 kts | 304° |
| 2026-05-06 18:56 | 46.97632 | 14.65865 | 39864 ft | 471 kts | 304° |
| 2026-05-06 18:56 | 47.01716 | 14.58454 | 39864 ft | 470 kts | 304° |
| 2026-05-06 18:57 | 47.05796 | 14.50997 | 39874 ft | 470 kts | 304° |
| 2026-05-06 18:57 | 47.09905 | 14.43486 | 39799 ft | 473 kts | 304° |
| 2026-05-06 18:57 | 47.11958 | 14.39723 | 39549 ft | 471 kts | 303° |
| 2026-05-06 18:58 | 47.14002 | 14.35973 | 39357 ft | 467 kts | 303° |
| 2026-05-06 18:58 | 47.16025 | 14.32252 | 39109 ft | 464 kts | 303° |
| 2026-05-06 18:58 | 47.18022 | 14.28579 | 38707 ft | 462 kts | 303° |
| 2026-05-06 18:58 | 47.20031 | 14.24872 | 38398 ft | 460 kts | 302° |
| 2026-05-06 18:59 | 47.22023 | 14.21192 | 38030 ft | 460 kts | 302° |
| 2026-05-06 18:59 | 47.24013 | 14.17515 | 37694 ft | 459 kts | 302° |
| 2026-05-06 18:59 | 47.25997 | 14.13847 | 37248 ft | 458 kts | 302° |
| 2026-05-06 18:59 | 47.27975 | 14.10183 | 36867 ft | 457 kts | 302° |
| 2026-05-06 19:00 | 47.29948 | 14.06517 | 36539 ft | 456 kts | 302° |
| 2026-05-06 19:00 | 47.31919 | 14.02854 | 36215 ft | 456 kts | 302° |
| 2026-05-06 19:00 | 47.33889 | 13.99188 | 35840 ft | 457 kts | 302° |
| 2026-05-06 19:00 | 47.35861 | 13.95516 | 35481 ft | 457 kts | 302° |
| 2026-05-06 19:01 | 47.37829 | 13.91845 | 35145 ft | 457 kts | 301° |
| 2026-05-06 19:01 | 47.39799 | 13.88164 | 34792 ft | 457 kts | 301° |
| 2026-05-06 19:01 | 47.41770 | 13.84477 | 34473 ft | 457 kts | 301° |
| 2026-05-06 19:01 | 47.43736 | 13.80798 | 34153 ft | 456 kts | 301° |
| 2026-05-06 19:02 | 47.45697 | 13.77119 | 33870 ft | 455 kts | 301° |
| 2026-05-06 19:02 | 47.47645 | 13.73463 | 33481 ft | 449 kts | 300° |
| 2026-05-06 19:02 | 47.49533 | 13.69919 | 32907 ft | 440 kts | 300° |
| 2026-05-06 19:02 | 47.51440 | 13.66320 | 32468 ft | 438 kts | 300° |
| 2026-05-06 19:03 | 47.53282 | 13.62845 | 31815 ft | 431 kts | 300° |
| 2026-05-06 19:03 | 47.55118 | 13.59385 | 31131 ft | 428 kts | 300° |
| 2026-05-06 19:03 | 47.56948 | 13.55915 | 30647 ft | 426 kts | 300° |
| 2026-05-06 19:03 | 47.58775 | 13.52455 | 30262 ft | 425 kts | 300° |
| 2026-05-06 19:04 | 47.60597 | 13.49007 | 29828 ft | 425 kts | 300° |
| 2026-05-06 19:04 | 47.62416 | 13.45555 | 29279 ft | 425 kts | 300° |
| 2026-05-06 19:04 | 47.64230 | 13.42108 | 28583 ft | 417 kts | 300° |
| 2026-05-06 19:04 | 47.65980 | 13.38796 | 27721 ft | 399 kts | 300° |
| 2026-05-06 19:05 | 47.67659 | 13.35601 | 26727 ft | 387 kts | 300° |
| 2026-05-06 19:05 | 47.69288 | 13.32479 | 25634 ft | 379 kts | 300° |
| 2026-05-06 19:05 | 47.70892 | 13.29409 | 25068 ft | 378 kts | 300° |
| 2026-05-06 19:05 | 47.72504 | 13.26327 | 24482 ft | 378 kts | 301° |
| 2026-05-06 19:06 | 47.74113 | 13.23246 | 23919 ft | 380 kts | 301° |
| 2026-05-06 19:06 | 47.75738 | 13.20133 | 23281 ft | 381 kts | 302° |
| 2026-05-06 19:06 | 47.77360 | 13.17029 | 22639 ft | 381 kts | 302° |
| 2026-05-06 19:06 | 47.78981 | 13.13918 | 22054 ft | 381 kts | 302° |
| 2026-05-06 19:07 | 47.80583 | 13.10843 | 21448 ft | 367 kts | 302° |
| 2026-05-06 19:07 | 47.82103 | 13.07932 | 20891 ft | 346 kts | 302° |
| 2026-05-06 19:07 | 47.83534 | 13.05175 | 20542 ft | 335 kts | 302° |
| 2026-05-06 19:07 | 47.84951 | 13.02422 | 20037 ft | 336 kts | 302° |
| 2026-05-06 19:08 | 47.86360 | 12.99696 | 19502 ft | 338 kts | 302° |
| 2026-05-06 19:08 | 47.87816 | 12.96889 | 18987 ft | 339 kts | 302° |
| 2026-05-06 19:08 | 47.89241 | 12.94138 | 18452 ft | 340 kts | 302° |
| 2026-05-06 19:08 | 47.90686 | 12.91338 | 17900 ft | 341 kts | 302° |
| 2026-05-06 19:09 | 47.92130 | 12.88541 | 17359 ft | 340 kts | 302° |
| 2026-05-06 19:09 | 47.93570 | 12.85750 | 16831 ft | 338 kts | 302° |
| 2026-05-06 19:09 | 47.95001 | 12.82975 | 16290 ft | 337 kts | 303° |
| 2026-05-06 19:09 | 47.96500 | 12.80295 | 15801 ft | 336 kts | 305° |
| 2026-05-06 19:10 | 47.97903 | 12.77688 | 15294 ft | 334 kts | 303° |
| 2026-05-06 19:10 | 47.99323 | 12.74957 | 14790 ft | 332 kts | 303° |
| 2026-05-06 19:10 | 48.00726 | 12.72234 | 14270 ft | 330 kts | 303° |
| 2026-05-06 19:10 | 48.02078 | 12.69599 | 13785 ft | 329 kts | 303° |
| 2026-05-06 19:11 | 48.03468 | 12.66888 | 13240 ft | 327 kts | 303° |
| 2026-05-06 19:11 | 48.04664 | 12.64554 | 12796 ft | 323 kts | 303° |
| 2026-05-06 19:11 | 48.06025 | 12.61900 | 12311 ft | 320 kts | 303° |
| 2026-05-06 19:11 | 48.07370 | 12.59272 | 11806 ft | 317 kts | 303° |
| 2026-05-06 19:12 | 48.08824 | 12.56819 | 11337 ft | 319 kts | 319° |
| 2026-05-06 19:12 | 48.10742 | 12.55161 | 10972 ft | 317 kts | 330° |
| 2026-05-06 19:12 | 48.12722 | 12.53864 | 10832 ft | 304 kts | 333° |
| 2026-05-06 19:12 | 48.14630 | 12.52715 | 10600 ft | 300 kts | 334° |
| 2026-05-06 19:13 | 48.16568 | 12.51573 | 10226 ft | 298 kts | 334° |
| 2026-05-06 19:13 | 48.18491 | 12.50450 | 9857 ft | 296 kts | 334° |
| 2026-05-06 19:13 | 48.20406 | 12.49336 | 9468 ft | 294 kts | 334° |
| 2026-05-06 19:13 | 48.22271 | 12.48251 | 9082 ft | 292 kts | 334° |
| 2026-05-06 19:14 | 48.24154 | 12.47160 | 8673 ft | 289 kts | 334° |
| 2026-05-06 19:14 | 48.26018 | 12.46081 | 8282 ft | 285 kts | 334° |
| 2026-05-06 19:14 | 48.27857 | 12.45025 | 7904 ft | 281 kts | 334° |
| 2026-05-06 19:14 | 48.29641 | 12.44079 | 7519 ft | 271 kts | 342° |
| 2026-05-06 19:15 | 48.31494 | 12.43759 | 7132 ft | 265 kts | 352° |
| 2026-05-06 19:15 | 48.33322 | 12.43680 | 6866 ft | 252 kts | 354° |
| 2026-05-06 19:15 | 48.35067 | 12.43612 | 6859 ft | 249 kts | 347° |
| 2026-05-06 19:15 | 48.36499 | 12.42542 | 6917 ft | 230 kts | 308° |
| 2026-05-06 19:16 | 48.37425 | 12.40588 | 7015 ft | 231 kts | 297° |
| 2026-05-06 19:16 | 48.38212 | 12.38481 | 6808 ft | 234 kts | 291° |
| 2026-05-06 19:16 | 48.38531 | 12.36124 | 6346 ft | 232 kts | 272° |
| 2026-05-06 19:16 | 48.38540 | 12.33719 | 6028 ft | 226 kts | 264° |
| 2026-05-06 19:17 | 48.38377 | 12.31432 | 6024 ft | 219 kts | 263° |
| 2026-05-06 19:17 | 48.38203 | 12.29154 | 6025 ft | 215 kts | 263° |
| 2026-05-06 19:17 | 48.38039 | 12.27015 | 6027 ft | 197 kts | 263° |
| 2026-05-06 19:17 | 48.37892 | 12.25106 | 6022 ft | 181 kts | 263° |
| 2026-05-06 19:18 | 48.37752 | 12.23274 | 6027 ft | 164 kts | 263° |
| 2026-05-06 19:18 | 48.37622 | 12.21571 | 6031 ft | 163 kts | 263° |
| 2026-05-06 19:18 | 48.37491 | 12.19877 | 6027 ft | 163 kts | 263° |
| 2026-05-06 19:18 | 48.37360 | 12.18181 | 6021 ft | 162 kts | 263° |
| 2026-05-06 19:19 | 48.37235 | 12.16557 | 6017 ft | 152 kts | 263° |
| 2026-05-06 19:19 | 48.37114 | 12.14977 | 6006 ft | 153 kts | 263° |
| 2026-05-06 19:19 | 48.36993 | 12.13391 | 5824 ft | 151 kts | 263° |
| 2026-05-06 19:19 | 48.36872 | 12.11841 | 5627 ft | 148 kts | 263° |
| 2026-05-06 19:20 | 48.36760 | 12.10322 | 5431 ft | 145 kts | 265° |
| 2026-05-06 19:20 | 48.36649 | 12.08817 | 5233 ft | 144 kts | 264° |
| 2026-05-06 19:20 | 48.36535 | 12.07328 | 5044 ft | 143 kts | 265° |
| 2026-05-06 19:20 | 48.36421 | 12.05846 | 4861 ft | 142 kts | 265° |
| 2026-05-06 19:21 | 48.36307 | 12.04374 | 4667 ft | 141 kts | 265° |
| 2026-05-06 19:21 | 48.36195 | 12.02909 | 4474 ft | 141 kts | 265° |
| 2026-05-06 19:21 | 48.36081 | 12.01447 | 4281 ft | 141 kts | 265° |
| 2026-05-06 19:21 | 48.35971 | 11.99999 | 4094 ft | 140 kts | 266° |
| 2026-05-06 19:22 | 48.35861 | 11.98552 | 3898 ft | 139 kts | 265° |
| 2026-05-06 19:22 | 48.35752 | 11.97136 | 3717 ft | 133 kts | 265° |
| 2026-05-06 19:22 | 48.35647 | 11.95756 | 3536 ft | 133 kts | 265° |
| 2026-05-06 19:22 | 48.35541 | 11.94381 | 3375 ft | 132 kts | 265° |
| 2026-05-06 19:23 | 48.35435 | 11.93009 | 3195 ft | 132 kts | 264° |
| 2026-05-06 19:23 | 48.35329 | 11.91645 | 3007 ft | 132 kts | 265° |
| 2026-05-06 19:23 | 48.35226 | 11.90269 | 2833 ft | 134 kts | 265° |
| 2026-05-06 19:23 | 48.35116 | 11.88886 | 2638 ft | 130 kts | 264° |
| 2026-05-06 19:24 | 48.35017 | 11.87543 | 2470 ft | 132 kts | 264° |
| 2026-05-06 19:24 | 48.34919 | 11.86160 | 2273 ft | 130 kts | 263° |
| 2026-05-06 19:24 | 48.34818 | 11.84823 | 2090 ft | 132 kts | 263° |
| 2026-05-06 19:24 | 48.34719 | 11.83415 | 1900 ft | 137 kts | 262° |
| 2026-05-06 19:25 | 48.34603 | 11.82025 | 1735 ft | 131 kts | 260° |
| 2026-05-06 19:25 | 48.34491 | 11.80663 | 1532 ft | 130 kts | 264° |
| 2026-05-06 19:25 | 48.34394 | 11.79367 | 1463 ft | 104 kts | 264° |
| 2026-05-06 19:25 | 48.34338 | 11.78625 | 1466 ft | 46 kts | 263° |
| 2026-05-06 19:26 | 48.34307 | 11.78226 | 1466 ft | 35 kts | 265° |
| 2026-05-06 19:26 | 48.34344 | 11.77901 | 1466 ft | 31 kts | 295° |
| 2026-05-06 19:26 | 48.34427 | 11.77623 | 1462 ft | 25 kts | 293° |
| 2026-05-06 19:26 | 48.34505 | 11.77437 | 1450 ft | 16 kts | 332° |
| 2026-05-06 19:27 | 48.34593 | 11.77425 | 1468 ft | 11 kts | 11° |
| 2026-05-06 19:27 | 48.34629 | 11.77478 | 1460 ft | 6 kts | 69° |
| 2026-05-06 19:27 | 48.34637 | 11.77578 | 1463 ft | 12 kts | 84° |
| 2026-05-06 19:27 | 48.34646 | 11.77699 | 1467 ft | 10 kts | 83° |
| 2026-05-06 19:28 | 48.34655 | 11.77807 | 1463 ft | 11 kts | 83° |
| 2026-05-06 19:28 | 48.34673 | 11.77888 | 1466 ft | 4 kts | 43° |
| 2026-05-06 19:28 | 48.34690 | 11.77890 | 1467 ft | 3 kts | 0° |
| 2026-05-06 19:28 | 48.34704 | 11.77889 | 1468 ft | 0 kts | 358° |
| 2026-05-06 19:29 | 48.34707 | 11.77889 | 1467 ft | 3 kts | 358° |
| 2026-05-06 19:29 | 48.34736 | 11.77885 | 1470 ft | 5 kts | 355° |
| 2026-05-06 19:30 | 48.34772 | 11.77880 | 1468 ft | 6 kts | 354° |
| 2026-05-06 19:30 | 48.34798 | 11.77876 | 1469 ft | 0 kts | 353° |
| 2026-05-06 19:30 | 48.34815 | 11.77873 | 1465 ft | 7 kts | 353° |
| 2026-05-06 19:31 | 48.34865 | 11.77864 | 1463 ft | 8 kts | 353° |
| 2026-05-06 19:31 | 48.34934 | 11.77852 | 1463 ft | 11 kts | 353° |
| 2026-05-06 19:31 | 48.35094 | 11.77824 | 1466 ft | 12 kts | 353° |
| 2026-05-06 19:32 | 48.35181 | 11.77808 | 1462 ft | 13 kts | 353° |
| 2026-05-06 19:32 | 48.35272 | 11.77793 | 1470 ft | 13 kts | 353° |
| 2026-05-06 19:32 | 48.35329 | 11.77821 | 1467 ft | 4 kts | 48° |
| 2026-05-06 19:32 | 48.35334 | 11.77854 | 1467 ft | 5 kts | 81° |
| 2026-05-06 19:33 | 48.35344 | 11.77961 | 1461 ft | 18 kts | 82° |
| 2026-05-06 19:33 | 48.35344 | 11.78125 | 1463 ft | 12 kts | 116° |
| 2026-05-06 19:33 | 48.35273 | 11.78170 | 1464 ft | 11 kts | 172° |
| 2026-05-06 19:33 | 48.35194 | 11.78184 | 1465 ft | 12 kts | 174° |
| 2026-05-06 19:34 | 48.35111 | 11.78199 | 1468 ft | 12 kts | 173° |
| 2026-05-06 19:34 | 48.35059 | 11.78215 | 1463 ft | 10 kts | 156° |
| 2026-05-06 19:34 | 48.35041 | 11.78259 | 1464 ft | 5 kts | 103° |
| 2026-05-06 19:34 | 48.35047 | 11.78329 | 1468 ft | 7 kts | 81° |
| 2026-05-06 19:35 | 48.35050 | 11.78352 | 1469 ft | 0 kts | 80° |